sensor_id;sensor_type;location;lat;lon;timestamp;temperature;humidity
64599;SHT31;51008;51.504;11.548;2022-09-03T00:03:44;15.29;66.14
64599;SHT31;51008;51.504;11.548;2022-09-03T00:09:12;15.24;66.28
64599;SHT31;51008;51.504;11.548;2022-09-03T00:14:24;15.15;67.46
64599;SHT31;51008;51.504;11.548;2022-09-03T00:19:30;15.04;68.49
64599;SHT31;51008;51.504;11.548;2022-09-03T00:24:35;14.94;68.07
64599;SHT31;51008;51.504;11.548;2022-09-03T00:29:42;14.84;68.74
64599;SHT31;51008;51.504;11.548;2022-09-03T00:34:49;14.85;69.20
64599;SHT31;51008;51.504;11.548;2022-09-03T00:39:51;14.87;69.35
64599;SHT31;51008;51.504;11.548;2022-09-03T00:55:57;14.80;69.87
64599;SHT31;51008;51.504;11.548;2022-09-03T01:01:09;14.77;68.81
64599;SHT31;51008;51.504;11.548;2022-09-03T01:06:18;14.71;69.61
64599;SHT31;51008;51.504;11.548;2022-09-03T01:11:38;14.70;69.95
64599;SHT31;51008;51.504;11.548;2022-09-03T01:17:01;14.70;69.78
64599;SHT31;51008;51.504;11.548;2022-09-03T01:33:51;14.60;70.40
64599;SHT31;51008;51.504;11.548;2022-09-03T01:39:00;14.59;70.08
64599;SHT31;51008;51.504;11.548;2022-09-03T01:44:29;14.57;70.44
64599;SHT31;51008;51.504;11.548;2022-09-03T01:49:43;14.60;69.86
64599;SHT31;51008;51.504;11.548;2022-09-03T02:05:16;14.53;70.05
64599;SHT31;51008;51.504;11.548;2022-09-03T02:10:24;14.49;70.09
64599;SHT31;51008;51.504;11.548;2022-09-03T02:15:26;14.32;70.56
64599;SHT31;51008;51.504;11.548;2022-09-03T02:20:28;14.32;70.49
64599;SHT31;51008;51.504;11.548;2022-09-03T02:25:35;14.22;70.09
64599;SHT31;51008;51.504;11.548;2022-09-03T02:30:37;14.10;70.14
64599;SHT31;51008;51.504;11.548;2022-09-03T02:35:39;13.93;70.54
64599;SHT31;51008;51.504;11.548;2022-09-03T02:40:40;13.84;70.56
64599;SHT31;51008;51.504;11.548;2022-09-03T02:45:45;13.69;71.02
64599;SHT31;51008;51.504;11.548;2022-09-03T02:50:47;13.63;71.40
64599;SHT31;51008;51.504;11.548;2022-09-03T02:55:48;13.48;71.68
64599;SHT31;51008;51.504;11.548;2022-09-03T03:00:48;13.36;71.84
64599;SHT31;51008;51.504;11.548;2022-09-03T03:05:54;13.18;72.42
64599;SHT31;51008;51.504;11.548;2022-09-03T03:10:56;12.95;72.42
64599;SHT31;51008;51.504;11.548;2022-09-03T03:15:59;12.66;73.17
64599;SHT31;51008;51.504;11.548;2022-09-03T03:21:06;12.45;73.73
64599;SHT31;51008;51.504;11.548;2022-09-03T03:26:09;12.31;74.03
64599;SHT31;51008;51.504;11.548;2022-09-03T03:31:13;12.26;74.67
64599;SHT31;51008;51.504;11.548;2022-09-03T03:36:14;12.22;74.28
64599;SHT31;51008;51.504;11.548;2022-09-03T03:41:20;12.07;74.19
64599;SHT31;51008;51.504;11.548;2022-09-03T03:46:22;11.94;74.71
64599;SHT31;51008;51.504;11.548;2022-09-03T03:51:24;11.65;76.44
64599;SHT31;51008;51.504;11.548;2022-09-03T03:56:25;11.51;76.81
64599;SHT31;51008;51.504;11.548;2022-09-03T04:01:27;11.45;76.73
64599;SHT31;51008;51.504;11.548;2022-09-03T04:06:28;11.48;77.33
64599;SHT31;51008;51.504;11.548;2022-09-03T04:11:29;11.45;77.68
64599;SHT31;51008;51.504;11.548;2022-09-03T04:16:31;11.48;77.72
64599;SHT31;51008;51.504;11.548;2022-09-03T04:21:32;11.54;78.74
64599;SHT31;51008;51.504;11.548;2022-09-03T04:26:34;11.69;78.90
64599;SHT31;51008;51.504;11.548;2022-09-03T04:31:36;11.80;78.93
64599;SHT31;51008;51.504;11.548;2022-09-03T04:36:37;11.97;78.55
64599;SHT31;51008;51.504;11.548;2022-09-03T04:41:38;12.08;78.67
64599;SHT31;51008;51.504;11.548;2022-09-03T04:46:39;12.14;78.79
64599;SHT31;51008;51.504;11.548;2022-09-03T04:51:40;12.11;79.03
64599;SHT31;51008;51.504;11.548;2022-09-03T04:56:41;12.15;78.89
64599;SHT31;51008;51.504;11.548;2022-09-03T05:01:42;12.13;78.59
64599;SHT31;51008;51.504;11.548;2022-09-03T05:06:43;12.21;78.41
64599;SHT31;51008;51.504;11.548;2022-09-03T05:11:44;12.29;78.64
64599;SHT31;51008;51.504;11.548;2022-09-03T05:16:45;12.38;78.54
64599;SHT31;51008;51.504;11.548;2022-09-03T05:21:46;12.41;78.82
64599;SHT31;51008;51.504;11.548;2022-09-03T05:26:47;12.41;78.69
64599;SHT31;51008;51.504;11.548;2022-09-03T05:31:48;12.39;78.31
64599;SHT31;51008;51.504;11.548;2022-09-03T05:36:49;12.42;78.06
64599;SHT31;51008;51.504;11.548;2022-09-03T05:41:50;12.46;78.56
64599;SHT31;51008;51.504;11.548;2022-09-03T05:46:51;12.57;78.10
64599;SHT31;51008;51.504;11.548;2022-09-03T05:51:52;12.72;78.14
64599;SHT31;51008;51.504;11.548;2022-09-03T05:56:53;12.87;78.69
64599;SHT31;51008;51.504;11.548;2022-09-03T06:01:54;13.18;76.59
64599;SHT31;51008;51.504;11.548;2022-09-03T06:06:55;13.49;76.50
64599;SHT31;51008;51.504;11.548;2022-09-03T06:11:56;13.66;75.77
64599;SHT31;51008;51.504;11.548;2022-09-03T06:16:56;13.98;74.76
64599;SHT31;51008;51.504;11.548;2022-09-03T06:22:00;14.28;73.02
64599;SHT31;51008;51.504;11.548;2022-09-03T06:27:01;14.70;72.41
64599;SHT31;51008;51.504;11.548;2022-09-03T06:32:02;14.84;70.77
64599;SHT31;51008;51.504;11.548;2022-09-03T06:37:03;15.01;69.02
64599;SHT31;51008;51.504;11.548;2022-09-03T06:42:04;15.32;69.55
64599;SHT31;51008;51.504;11.548;2022-09-03T06:47:10;15.44;68.60
64599;SHT31;51008;51.504;11.548;2022-09-03T06:52:11;15.26;67.95
64599;SHT31;51008;51.504;11.548;2022-09-03T06:57:12;15.61;67.50
64599;SHT31;51008;51.504;11.548;2022-09-03T07:02:12;15.93;66.62
64599;SHT31;51008;51.504;11.548;2022-09-03T07:07:13;16.21;65.17
64599;SHT31;51008;51.504;11.548;2022-09-03T07:12:14;16.28;64.74
64599;SHT31;51008;51.504;11.548;2022-09-03T07:17:15;16.88;63.73
64599;SHT31;51008;51.504;11.548;2022-09-03T07:22:16;17.35;62.05
64599;SHT31;51008;51.504;11.548;2022-09-03T07:27:17;17.78;61.09
64599;SHT31;51008;51.504;11.548;2022-09-03T07:32:18;18.02;59.48
64599;SHT31;51008;51.504;11.548;2022-09-03T07:37:19;18.63;58.56
64599;SHT31;51008;51.504;11.548;2022-09-03T07:42:20;19.31;56.32
64599;SHT31;51008;51.504;11.548;2022-09-03T07:47:21;19.60;55.99
64599;SHT31;51008;51.504;11.548;2022-09-03T07:52:22;19.81;54.34
64599;SHT31;51008;51.504;11.548;2022-09-03T07:57:23;19.98;54.53
64599;SHT31;51008;51.504;11.548;2022-09-03T08:02:24;19.92;54.23
64599;SHT31;51008;51.504;11.548;2022-09-03T08:07:27;20.37;52.49
64599;SHT31;51008;51.504;11.548;2022-09-03T08:12:28;20.48;52.13
64599;SHT31;51008;51.504;11.548;2022-09-03T08:17:30;20.44;51.22
64599;SHT31;51008;51.504;11.548;2022-09-03T08:22:31;20.75;50.66
64599;SHT31;51008;51.504;11.548;2022-09-03T08:27:32;20.91;51.62
64599;SHT31;51008;51.504;11.548;2022-09-03T08:32:33;21.23;49.44
64599;SHT31;51008;51.504;11.548;2022-09-03T08:37:34;20.98;48.58
64599;SHT31;51008;51.504;11.548;2022-09-03T08:43:07;21.55;49.05
64599;SHT31;51008;51.504;11.548;2022-09-03T08:48:21;21.64;47.86
64599;SHT31;51008;51.504;11.548;2022-09-03T08:53:32;21.41;47.62
64599;SHT31;51008;51.504;11.548;2022-09-03T08:58:37;21.47;47.73
64599;SHT31;51008;51.504;11.548;2022-09-03T09:04:15;21.50;45.65
64599;SHT31;51008;51.504;11.548;2022-09-03T09:15:05;22.09;44.82
64599;SHT31;51008;51.504;11.548;2022-09-03T09:20:17;21.99;46.20
64599;SHT31;51008;51.504;11.548;2022-09-03T09:25:22;22.27;43.49
64599;SHT31;51008;51.504;11.548;2022-09-03T09:30:23;22.45;40.76
64599;SHT31;51008;51.504;11.548;2022-09-03T09:35:24;22.30;40.67
64599;SHT31;51008;51.504;11.548;2022-09-03T09:45:33;22.89;39.01
64599;SHT31;51008;51.504;11.548;2022-09-03T09:50:35;22.92;38.85
64599;SHT31;51008;51.504;11.548;2022-09-03T09:55:49;22.76;40.59
64599;SHT31;51008;51.504;11.548;2022-09-03T10:06:34;23.20;38.70
64599;SHT31;51008;51.504;11.548;2022-09-03T10:11:37;23.10;37.55
64599;SHT31;51008;51.504;11.548;2022-09-03T10:16:43;22.98;37.69
64599;SHT31;51008;51.504;11.548;2022-09-03T10:22:08;22.50;38.06
64599;SHT31;51008;51.504;11.548;2022-09-03T10:27:13;23.09;38.89
64599;SHT31;51008;51.504;11.548;2022-09-03T10:32:24;23.36;38.30
64599;SHT31;51008;51.504;11.548;2022-09-03T10:37:37;23.05;36.93
64599;SHT31;51008;51.504;11.548;2022-09-03T10:43:19;22.82;36.88
64599;SHT31;51008;51.504;11.548;2022-09-03T10:49:01;23.05;40.10
64599;SHT31;51008;51.504;11.548;2022-09-03T11:05:12;23.64;37.00
64599;SHT31;51008;51.504;11.548;2022-09-03T11:15:57;23.95;36.50
64599;SHT31;51008;51.504;11.548;2022-09-03T11:20:59;23.74;36.88
64599;SHT31;51008;51.504;11.548;2022-09-03T11:26:06;23.58;36.59
64599;SHT31;51008;51.504;11.548;2022-09-03T11:31:17;23.85;37.18
64599;SHT31;51008;51.504;11.548;2022-09-03T11:36:32;23.37;37.17
64599;SHT31;51008;51.504;11.548;2022-09-03T11:41:34;23.88;37.91
64599;SHT31;51008;51.504;11.548;2022-09-03T11:46:35;23.84;37.98
64599;SHT31;51008;51.504;11.548;2022-09-03T11:51:37;23.82;37.35
64599;SHT31;51008;51.504;11.548;2022-09-03T11:56:39;23.75;37.11
64599;SHT31;51008;51.504;11.548;2022-09-03T12:02:28;23.72;37.56
64599;SHT31;51008;51.504;11.548;2022-09-03T12:17:51;23.75;38.49
64599;SHT31;51008;51.504;11.548;2022-09-03T12:22:53;23.79;37.17
64599;SHT31;51008;51.504;11.548;2022-09-03T12:27:54;23.50;37.54
64599;SHT31;51008;51.504;11.548;2022-09-03T12:33:05;23.47;37.10
64599;SHT31;51008;51.504;11.548;2022-09-03T12:38:07;23.46;37.08
64599;SHT31;51008;51.504;11.548;2022-09-03T12:43:13;23.58;37.13
64599;SHT31;51008;51.504;11.548;2022-09-03T12:48:18;23.67;37.51
64599;SHT31;51008;51.504;11.548;2022-09-03T12:53:23;23.68;37.78
64599;SHT31;51008;51.504;11.548;2022-09-03T12:58:39;24.05;37.48
64599;SHT31;51008;51.504;11.548;2022-09-03T13:09:01;24.41;37.68
64599;SHT31;51008;51.504;11.548;2022-09-03T13:14:08;24.57;37.70
64599;SHT31;51008;51.504;11.548;2022-09-03T13:24:59;23.92;37.34
64599;SHT31;51008;51.504;11.548;2022-09-03T13:30:08;23.84;37.94
64599;SHT31;51008;51.504;11.548;2022-09-03T13:35:38;23.90;37.20
64599;SHT31;51008;51.504;11.548;2022-09-03T13:46:06;24.19;37.33
64599;SHT31;51008;51.504;11.548;2022-09-03T13:51:14;23.85;38.60
64599;SHT31;51008;51.504;11.548;2022-09-03T13:56:48;23.93;37.30
64599;SHT31;51008;51.504;11.548;2022-09-03T14:12:51;23.48;38.21
64599;SHT31;51008;51.504;11.548;2022-09-03T14:18:11;23.59;38.29
64599;SHT31;51008;51.504;11.548;2022-09-03T14:23:41;23.85;38.32
64599;SHT31;51008;51.504;11.548;2022-09-03T14:28:49;23.75;38.22
64599;SHT31;51008;51.504;11.548;2022-09-03T14:39:29;23.47;38.50
64599;SHT31;51008;51.504;11.548;2022-09-03T14:44:47;23.40;38.71
64599;SHT31;51008;51.504;11.548;2022-09-03T15:00:14;23.64;38.76
64599;SHT31;51008;51.504;11.548;2022-09-03T15:10:54;23.74;39.08
64599;SHT31;51008;51.504;11.548;2022-09-03T15:31:26;23.16;38.76
64599;SHT31;51008;51.504;11.548;2022-09-03T15:36:45;23.15;39.48
64599;SHT31;51008;51.504;11.548;2022-09-03T15:47:06;22.45;40.01
64599;SHT31;51008;51.504;11.548;2022-09-03T15:52:31;22.26;40.23
64599;SHT31;51008;51.504;11.548;2022-09-03T15:58:00;21.84;41.62
64599;SHT31;51008;51.504;11.548;2022-09-03T16:03:09;21.64;42.32
64599;SHT31;51008;51.504;11.548;2022-09-03T16:08:25;21.77;42.81
64599;SHT31;51008;51.504;11.548;2022-09-03T16:13:43;21.86;42.68
64599;SHT31;51008;51.504;11.548;2022-09-03T16:19:00;21.92;43.43
64599;SHT31;51008;51.504;11.548;2022-09-03T16:24:23;21.98;43.90
64599;SHT31;51008;51.504;11.548;2022-09-03T16:29:27;21.82;43.79
64599;SHT31;51008;51.504;11.548;2022-09-03T16:45:49;21.36;45.57
64599;SHT31;51008;51.504;11.548;2022-09-03T16:56:47;21.14;47.90
64599;SHT31;51008;51.504;11.548;2022-09-03T17:18:06;20.55;51.93
64599;SHT31;51008;51.504;11.548;2022-09-03T17:34:06;20.00;54.35
64599;SHT31;51008;51.504;11.548;2022-09-03T17:40:00;19.77;54.46
64599;SHT31;51008;51.504;11.548;2022-09-03T17:45:14;19.60;56.51
64599;SHT31;51008;51.504;11.548;2022-09-03T17:50:20;19.29;57.20
64599;SHT31;51008;51.504;11.548;2022-09-03T17:55:31;19.03;58.89
64599;SHT31;51008;51.504;11.548;2022-09-03T18:06:02;18.71;59.62
64599;SHT31;51008;51.504;11.548;2022-09-03T18:11:33;18.58;59.69
64599;SHT31;51008;51.504;11.548;2022-09-03T18:16:40;18.43;60.58
64599;SHT31;51008;51.504;11.548;2022-09-03T18:21:47;18.33;60.62
64599;SHT31;51008;51.504;11.548;2022-09-03T18:26:57;18.21;61.46
64599;SHT31;51008;51.504;11.548;2022-09-03T18:31:59;18.05;61.73
64599;SHT31;51008;51.504;11.548;2022-09-03T18:37:00;17.92;63.33
64599;SHT31;51008;51.504;11.548;2022-09-03T18:53:02;17.73;63.92
64599;SHT31;51008;51.504;11.548;2022-09-03T18:58:26;17.74;62.59
64599;SHT31;51008;51.504;11.548;2022-09-03T19:04:14;17.74;62.91
64599;SHT31;51008;51.504;11.548;2022-09-03T19:14:52;17.78;59.90
64599;SHT31;51008;51.504;11.548;2022-09-03T19:20:20;17.91;59.48
64599;SHT31;51008;51.504;11.548;2022-09-03T19:25:26;17.91;59.91
64599;SHT31;51008;51.504;11.548;2022-09-03T19:30:48;17.88;59.91
64599;SHT31;51008;51.504;11.548;2022-09-03T19:36:13;17.87;60.48
64599;SHT31;51008;51.504;11.548;2022-09-03T19:52:01;17.84;61.61
64599;SHT31;51008;51.504;11.548;2022-09-03T19:57:00;17.85;61.26
64599;SHT31;51008;51.504;11.548;2022-09-03T20:02:03;17.85;61.54
64599;SHT31;51008;51.504;11.548;2022-09-03T20:07:08;17.80;62.19
64599;SHT31;51008;51.504;11.548;2022-09-03T20:12:12;17.77;61.57
64599;SHT31;51008;51.504;11.548;2022-09-03T20:17:27;17.85;59.68
64599;SHT31;51008;51.504;11.548;2022-09-03T20:22:38;17.87;60.12
64599;SHT31;51008;51.504;11.548;2022-09-03T20:54:04;17.82;60.50
64599;SHT31;51008;51.504;11.548;2022-09-03T20:59:20;17.71;60.76
64599;SHT31;51008;51.504;11.548;2022-09-03T21:05:13;17.69;61.08
64599;SHT31;51008;51.504;11.548;2022-09-03T21:10:34;17.66;61.26
64599;SHT31;51008;51.504;11.548;2022-09-03T21:15:51;17.67;61.75
64599;SHT31;51008;51.504;11.548;2022-09-03T21:21:23;17.57;61.54
64599;SHT31;51008;51.504;11.548;2022-09-03T21:26:28;17.55;61.92
64599;SHT31;51008;51.504;11.548;2022-09-03T21:36:54;17.53;62.22
64599;SHT31;51008;51.504;11.548;2022-09-03T21:47:26;17.46;62.84
64599;SHT31;51008;51.504;11.548;2022-09-03T21:52:36;17.42;62.88
64599;SHT31;51008;51.504;11.548;2022-09-03T21:58:00;17.35;63.20
64599;SHT31;51008;51.504;11.548;2022-09-03T22:03:05;17.35;63.16
64599;SHT31;51008;51.504;11.548;2022-09-03T22:08:17;17.35;63.54
64599;SHT31;51008;51.504;11.548;2022-09-03T22:13:43;17.33;63.67
64599;SHT31;51008;51.504;11.548;2022-09-03T22:18:46;17.22;64.13
64599;SHT31;51008;51.504;11.548;2022-09-03T22:29:18;17.12;64.38
64599;SHT31;51008;51.504;11.548;2022-09-03T22:35:13;17.12;64.32
64599;SHT31;51008;51.504;11.548;2022-09-03T22:40:42;17.07;64.74
64599;SHT31;51008;51.504;11.548;2022-09-03T22:56:04;16.95;65.06
64599;SHT31;51008;51.504;11.548;2022-09-03T23:01:24;16.94;65.42
64599;SHT31;51008;51.504;11.548;2022-09-03T23:06:31;16.92;65.51
64599;SHT31;51008;51.504;11.548;2022-09-03T23:11:44;16.85;65.78
64599;SHT31;51008;51.504;11.548;2022-09-03T23:16:56;16.73;65.75
64599;SHT31;51008;51.504;11.548;2022-09-03T23:22:04;16.63;66.06
64599;SHT31;51008;51.504;11.548;2022-09-03T23:27:09;16.56;66.19
64599;SHT31;51008;51.504;11.548;2022-09-03T23:32:13;16.52;66.48
64599;SHT31;51008;51.504;11.548;2022-09-03T23:59:33;16.50;67.91
